Time;durP1;ratioP1;P1;durP2;ratioP2;P2;SDS_P1;SDS_P2;PMS_P1;PMS_P2;Temp;Humidity;BMP_temperature;BMP_pressure;BME280_temperature;BME280_humidity;BME280_pressure;Samples;Min_cycle;Max_cycle;Signal;HPM_P1;HPM_P2
2021/06/01 00:02:16;;;;;;;3.47;1.95;;;;;;;14.35;56.42;101635.53;5027883;28;20121;-72
2021/06/01 00:04:42;;;;;;;4.45;1.70;;;;;;;14.35;56.52;101642.50;5040310;28;20134;-72
2021/06/01 00:07:07;;;;;;;4.78;1.92;;;;;;;14.36;56.35;101636.34;5022481;28;20033;-71
2021/06/01 00:09:33;;;;;;;4.32;1.90;;;;;;;14.38;56.34;101635.19;5024963;28;20029;-72
2021/06/01 00:11:58;;;;;;;3.05;1.70;;;;;;;14.39;56.29;101636.00;5022835;28;20371;-72
2021/06/01 00:14:24;;;;;;;2.30;1.85;;;;;;;14.41;56.50;101639.28;5040257;28;20068;-71
2021/06/01 00:16:50;;;;;;;2.90;1.90;;;;;;;14.38;57.01;101637.78;5041656;28;20477;-72
2021/06/01 00:19:16;;;;;;;4.13;1.70;;;;;;;14.37;57.04;101637.94;5038431;28;20061;-72
2021/06/01 00:21:42;;;;;;;2.58;1.55;;;;;;;14.34;56.90;101635.69;5024152;28;20029;-72
2021/06/01 00:24:09;;;;;;;10.13;2.17;;;;;;;14.32;56.62;101643.66;5026363;28;20083;-72
2021/06/01 00:26:36;;;;;;;3.33;1.95;;;;;;;14.30;56.31;101639.59;5041125;28;20045;-72
2021/06/01 00:29:02;;;;;;;2.53;1.90;;;;;;;14.28;56.19;101647.56;5025097;28;20592;-71
2021/06/01 00:31:28;;;;;;;6.93;1.70;;;;;;;14.25;56.50;101636.63;5025377;28;20037;-71
2021/06/01 00:33:53;;;;;;;3.90;1.90;;;;;;;14.20;56.86;101642.31;5025478;28;20029;-72
2021/06/01 00:36:19;;;;;;;6.45;2.05;;;;;;;14.10;57.02;101642.47;5040823;28;20041;-72
2021/06/01 00:38:44;;;;;;;3.00;1.80;;;;;;;14.00;56.96;101647.00;5025403;28;20095;-72
2021/06/01 00:41:09;;;;;;;6.32;2.03;;;;;;;13.93;57.14;101652.00;5024292;28;20508;-72
2021/06/01 00:43:35;;;;;;;3.25;1.80;;;;;;;13.92;57.15;101644.34;5025300;28;20041;-74
2021/06/01 00:46:02;;;;;;;4.53;1.95;;;;;;;13.90;57.14;101646.28;5026213;28;20041;-72
2021/06/01 00:48:27;;;;;;;4.40;1.98;;;;;;;13.88;57.14;101645.63;5026419;28;20032;-72
2021/06/01 00:50:54;;;;;;;5.80;2.40;;;;;;;13.80;57.77;101641.22;5040044;28;20030;-74
2021/06/01 00:53:20;;;;;;;7.35;2.75;;;;;;;13.62;58.68;101646.53;5040416;28;20124;-74
2021/06/01 00:55:45;;;;;;;7.20;2.28;;;;;;;13.42;59.25;101645.91;5024814;28;20449;-74
2021/06/01 00:58:11;;;;;;;4.07;2.25;;;;;;;13.27;59.58;101644.81;5024732;28;20044;-73
2021/06/01 01:03:02;;;;;;;7.10;2.30;;;;;;;13.14;60.29;101633.00;5025214;28;20021;-71
2021/06/01 01:05:36;;;;;;;3.92;2.20;;;;;;;13.07;60.72;101638.97;5023820;28;20033;-72
2021/06/01 01:08:33;;;;;;;6.10;2.20;;;;;;;13.08;60.60;101641.44;5024782;28;20091;-72
2021/06/01 01:11:17;;;;;;;3.35;2.13;;;;;;;13.12;60.89;101641.94;5028319;28;20108;-72
2021/06/01 01:13:57;;;;;;;4.85;2.38;;;;;;;13.12;61.21;101636.75;5021039;28;20060;-71
2021/06/01 01:16:26;;;;;;;4.35;1.98;;;;;;;13.01;61.39;101632.59;5024826;28;20045;-71
2021/06/01 01:18:58;;;;;;;4.70;2.08;;;;;;;12.99;61.50;101635.34;5024667;28;20597;-72
2021/06/01 01:21:31;;;;;;;4.45;2.53;;;;;;;12.97;61.44;101637.28;5038129;28;20059;-72
2021/06/01 01:24:15;;;;;;;;;;;;;;;12.91;61.85;101640.50;5023986;28;20677;-72
2021/06/01 01:27:03;;;;;;;5.22;2.40;;;;;;;12.84;62.10;101634.25;5016223;28;20439;-71
2021/06/01 01:29:38;;;;;;;5.15;2.80;;;;;;;12.84;61.97;101642.06;5005591;28;20041;-71
2021/06/01 01:32:07;;;;;;;4.53;2.30;;;;;;;12.86;61.74;101647.94;5039990;28;20651;-73
2021/06/01 01:34:33;;;;;;;6.63;3.13;;;;;;;12.87;61.28;101652.19;5024214;28;20029;-71
2021/06/01 01:37:00;;;;;;;3.75;2.38;;;;;;;12.88;60.87;101647.78;5038539;28;20124;-72
2021/06/01 01:39:30;;;;;;;5.70;2.70;;;;;;;12.88;60.75;101647.78;5024031;28;20458;-72
2021/06/01 01:41:56;;;;;;;9.00;3.10;;;;;;;12.85;60.71;101656.72;5024053;28;20033;-74
2021/06/01 01:44:25;;;;;;;5.25;2.60;;;;;;;12.82;60.94;101650.00;5025324;28;20108;-74
2021/06/01 01:47:00;;;;;;;5.22;2.63;;;;;;;12.78;61.62;101651.28;5023405;28;20120;-75
2021/06/01 01:49:27;;;;;;;4.15;2.50;;;;;;;12.71;61.75;101652.84;5024309;28;20037;-75
2021/06/01 01:51:58;;;;;;;6.05;2.97;;;;;;;12.68;61.73;101650.56;5042053;28;20021;-74
2021/06/01 01:54:27;;;;;;;8.13;3.15;;;;;;;12.66;61.96;101642.09;5030293;28;20437;-75
2021/06/01 01:57:07;;;;;;;6.20;3.25;;;;;;;12.62;61.66;101641.56;5028633;28;20634;-75
2021/06/01 01:59:33;;;;;;;8.10;2.70;;;;;;;12.56;62.14;101634.31;5028510;28;20057;-74
2021/06/01 02:01:58;;;;;;;4.43;2.70;;;;;;;12.52;62.35;101643.41;5043169;28;20095;-74
2021/06/01 02:04:26;;;;;;;5.60;3.13;;;;;;;12.48;62.37;101636.06;5043065;28;20501;-74
2021/06/01 02:06:52;;;;;;;8.20;3.17;;;;;;;12.42;63.00;101640.06;5025377;28;20120;-74
2021/06/01 02:09:21;;;;;;;7.80;2.92;;;;;;;12.28;63.36;101636.16;5023022;28;20057;-74
2021/06/01 02:11:46;;;;;;;6.22;2.88;;;;;;;12.09;63.79;101642.28;5026670;28;20103;-74
2021/06/01 02:14:12;;;;;;;5.57;3.28;;;;;;;11.93;64.23;101647.31;5028553;28;20064;-74
2021/06/01 02:16:40;;;;;;;5.63;3.00;;;;;;;11.76;64.52;101647.09;5027804;28;20029;-74
2021/06/01 02:19:07;;;;;;;5.55;3.08;;;;;;;11.64;64.93;101645.63;5041903;28;20037;-74
2021/06/01 02:24:27;;;;;;;7.82;3.08;;;;;;;11.38;66.17;101645.44;5039985;28;20033;-74
2021/06/01 02:26:55;;;;;;;5.03;2.78;;;;;;;11.34;66.14;101638.88;5044053;28;20061;-74
2021/06/01 02:29:43;;;;;;;5.80;2.90;;;;;;;11.35;66.46;101641.34;5026693;28;20029;-74
2021/06/01 02:32:10;;;;;;;7.75;3.33;;;;;;;11.30;66.46;101644.38;5023912;28;20090;-74
2021/06/01 02:34:38;;;;;;;8.80;3.60;;;;;;;11.27;66.68;101646.41;5026620;28;20083;-74
2021/06/01 02:37:05;;;;;;;8.88;3.53;;;;;;;11.26;66.82;101635.22;5023911;28;20330;-74
2021/06/01 02:39:31;;;;;;;9.20;3.08;;;;;;;11.26;66.67;101642.16;5024532;28;20312;-74
2021/06/01 02:41:57;;;;;;;5.05;3.25;;;;;;;11.25;66.38;101636.16;5028419;28;20037;-74
2021/06/01 02:44:23;;;;;;;12.80;3.60;;;;;;;11.30;66.05;101638.34;5042108;28;20037;-74
2021/06/01 02:46:49;;;;;;;6.35;3.10;;;;;;;11.36;65.87;101637.78;5026423;28;20033;-74
2021/06/01 02:49:17;;;;;;;8.90;3.60;;;;;;;11.33;66.19;101637.25;5027071;28;20052;-74
2021/06/01 02:51:43;;;;;;;10.32;4.40;;;;;;;11.18;66.74;101629.88;5045523;28;20033;-74
2021/06/01 02:54:09;;;;;;;11.38;3.50;;;;;;;11.11;66.99;101631.41;5043168;28;20034;-74
2021/06/01 02:56:35;;;;;;;5.53;3.47;;;;;;;11.12;66.67;101629.66;5026103;28;20047;-74
2021/06/01 02:59:04;;;;;;;6.05;3.42;;;;;;;11.18;66.38;101629.88;5021970;28;20037;-74
2021/06/01 03:01:30;;;;;;;10.30;3.95;;;;;;;11.21;66.36;101632.22;5020395;28;20037;-74
2021/06/01 03:03:56;;;;;;;4.25;3.35;;;;;;;11.24;66.11;101631.09;5019391;28;20037;-74
2021/06/01 03:06:27;;;;;;;6.80;3.08;;;;;;;11.22;66.46;101630.44;5039798;28;20034;-74
2021/06/01 03:08:52;;;;;;;14.57;3.88;;;;;;;11.09;66.92;101635.91;5041705;28;20060;-74
2021/06/01 03:11:20;;;;;;;9.15;3.40;;;;;;;10.92;67.26;101629.66;5041500;28;20037;-74
2021/06/01 03:13:50;;;;;;;4.97;3.25;;;;;;;10.81;67.32;101633.22;5025331;28;20549;-74
2021/06/01 03:16:17;;;;;;;6.72;3.55;;;;;;;10.75;67.47;101632.94;5027669;28;20063;-74
2021/06/01 03:18:43;;;;;;;9.63;3.83;;;;;;;10.76;67.45;101629.41;5023704;28;20043;-74
2021/06/01 03:21:11;;;;;;;4.93;3.47;;;;;;;10.79;67.30;101634.31;5025916;28;20060;-74
2021/06/01 03:23:37;;;;;;;7.00;3.13;;;;;;;10.68;67.72;101630.91;5040167;28;20041;-74
2021/06/01 03:26:03;;;;;;;10.75;4.25;;;;;;;10.55;68.09;101629.50;5022256;28;20496;-74
2021/06/01 03:28:32;;;;;;;6.93;3.40;;;;;;;10.45;68.31;101630.34;5026536;28;20032;-74
2021/06/01 03:30:58;;;;;;;7.43;3.20;;;;;;;10.41;68.51;101631.53;5026252;28;20032;-74
2021/06/01 03:33:23;;;;;;;6.53;3.38;;;;;;;10.40;68.78;101629.13;5026854;28;20128;-74
2021/06/01 03:35:49;;;;;;;10.88;3.60;;;;;;;10.46;68.31;101626.78;5041766;28;20072;-74
2021/06/01 03:38:15;;;;;;;5.57;3.47;;;;;;;10.52;67.97;101634.03;5020616;28;20060;-74
2021/06/01 03:40:41;;;;;;;9.38;4.20;;;;;;;10.54;68.21;101636.47;5040104;28;20018;-74
2021/06/01 03:43:07;;;;;;;7.72;3.53;;;;;;;10.50;68.94;101643.72;5042796;28;20063;-74
2021/06/01 03:45:33;;;;;;;7.47;4.07;;;;;;;10.43;69.13;101634.81;5026598;28;20041;-74
2021/06/01 03:47:59;;;;;;;8.10;3.80;;;;;;;10.33;69.70;101639.19;5026346;28;20086;-75
2021/06/01 03:50:24;;;;;;;6.90;3.75;;;;;;;10.31;69.64;101636.72;5026682;28;20189;-74
2021/06/01 03:52:50;;;;;;;7.35;3.72;;;;;;;10.31;69.65;101628.13;5027037;28;20056;-74
2021/06/01 03:55:16;;;;;;;8.45;4.00;;;;;;;10.31;69.57;101630.72;5042554;28;20664;-74
2021/06/01 03:57:44;;;;;;;8.02;4.13;;;;;;;10.29;69.67;101630.81;5025856;28;20034;-74
2021/06/01 04:00:10;;;;;;;6.25;3.55;;;;;;;10.26;70.06;101633.66;5028755;28;20021;-74
2021/06/01 04:02:40;;;;;;;5.57;3.33;;;;;;;10.25;70.30;101637.22;5036237;28;20437;-74
2021/06/01 04:05:06;;;;;;;8.85;3.63;;;;;;;10.28;70.16;101631.78;5041905;28;20029;-75
2021/06/01 04:07:31;;;;;;;6.07;4.00;;;;;;;10.30;70.10;101635.09;5039657;28;20033;-74
2021/06/01 04:09:56;;;;;;;7.65;3.95;;;;;;;10.27;70.25;101645.69;5026347;28;20550;-75
2021/06/01 04:12:22;;;;;;;6.63;3.70;;;;;;;10.22;70.66;101639.28;5024628;28;20025;-74
2021/06/01 04:14:48;;;;;;;4.88;3.15;;;;;;;10.20;70.83;101639.41;5025776;28;20059;-75
2021/06/01 04:17:13;;;;;;;6.68;3.90;;;;;;;10.23;70.71;101646.91;5025420;28;20505;-74
2021/06/01 04:19:39;;;;;;;8.88;4.32;;;;;;;10.22;70.64;101642.66;5021030;28;20026;-74
2021/06/01 04:22:04;;;;;;;5.75;3.63;;;;;;;10.23;70.87;101654.69;5023290;28;20038;-74
2021/06/01 04:24:30;;;;;;;9.77;3.47;;;;;;;10.23;70.83;101654.69;5040656;28;20356;-74
2021/06/01 04:26:59;;;;;;;11.98;4.22;;;;;;;10.23;71.28;101648.69;5024169;28;20055;-74
2021/06/01 04:29:25;;;;;;;8.10;3.70;;;;;;;10.24;71.54;101655.50;5038597;28;20021;-74
2021/06/01 04:31:51;;;;;;;5.90;3.70;;;;;;;10.28;71.13;101646.50;5025272;28;20071;-75
2021/06/01 04:34:17;;;;;;;7.60;4.05;;;;;;;10.36;70.91;101648.47;5038312;28;20398;-73
2021/06/01 04:36:43;;;;;;;8.70;3.47;;;;;;;10.45;70.53;101642.47;5037729;28;20039;-74
2021/06/01 04:39:09;;;;;;;6.28;3.45;;;;;;;10.54;70.07;101648.63;5039177;28;20406;-75
2021/06/01 04:41:34;;;;;;;10.55;3.90;;;;;;;10.62;69.88;101644.38;5025001;28;20037;-74
2021/06/01 04:44:00;;;;;;;7.55;4.50;;;;;;;10.69;69.74;101642.91;5040030;28;20032;-74
2021/06/01 04:46:26;;;;;;;10.45;4.40;;;;;;;10.77;69.31;101637.03;5022380;28;20032;-74
2021/06/01 04:48:51;;;;;;;11.27;4.60;;;;;;;10.86;69.42;101648.38;5022837;28;20025;-74
2021/06/01 04:51:18;;;;;;;7.82;3.80;;;;;;;10.93;69.29;101638.28;5024662;28;20075;-74
2021/06/01 04:53:45;;;;;;;8.00;4.22;;;;;;;11.01;68.86;101628.00;5043513;28;20048;-74
2021/06/01 04:56:11;;;;;;;6.53;3.70;;;;;;;11.09;68.84;101634.16;5023213;28;20083;-74
2021/06/01 04:58:36;;;;;;;7.22;3.38;;;;;;;11.21;69.00;101634.00;5040905;28;20613;-74
2021/06/01 05:01:02;;;;;;;8.32;4.15;;;;;;;11.32;69.33;101633.00;5025121;28;20036;-74
2021/06/01 05:03:27;;;;;;;6.22;3.88;;;;;;;11.43;68.91;101631.09;5015147;28;20128;-74
2021/06/01 05:05:53;;;;;;;9.05;4.07;;;;;;;11.58;68.83;101636.59;5036859;28;20036;-74
2021/06/01 05:08:18;;;;;;;6.68;4.03;;;;;;;11.74;68.22;101630.00;5020945;28;20025;-74
2021/06/01 05:10:43;;;;;;;6.05;4.03;;;;;;;11.90;67.60;101630.22;5022310;28;20386;-74
2021/06/01 05:13:09;;;;;;;6.55;4.50;;;;;;;12.11;65.91;101623.97;5023490;28;20317;-74
2021/06/01 05:15:34;;;;;;;7.20;3.58;;;;;;;12.35;62.91;101633.81;5018244;28;20108;-74
2021/06/01 05:17:59;;;;;;;9.75;3.45;;;;;;;12.60;61.86;101630.47;5016330;28;20029;-74
2021/06/01 05:20:26;;;;;;;5.70;3.10;;;;;;;12.89;59.83;101632.03;5038435;28;20191;-74
2021/06/01 05:22:51;;;;;;;6.80;3.38;;;;;;;13.10;60.42;101630.88;5021394;28;20068;-73
2021/06/01 05:25:16;;;;;;;4.72;3.08;;;;;;;13.31;59.76;101626.16;5038301;28;20041;-74
2021/06/01 05:27:42;;;;;;;6.40;3.17;;;;;;;13.57;59.00;101626.13;5021576;28;20030;-74
2021/06/01 05:30:08;;;;;;;6.30;3.20;;;;;;;13.82;56.97;101631.44;5024727;28;20494;-74
2021/06/01 05:35:27;;;;;;;6.85;3.10;;;;;;;14.31;53.09;101623.75;5023045;28;20124;-74
2021/06/01 05:37:53;;;;;;;5.43;3.05;;;;;;;14.60;53.61;101623.34;5021369;28;20037;-74
2021/06/01 05:40:19;;;;;;;5.95;3.03;;;;;;;14.87;53.89;101626.59;5025245;28;20049;-75
2021/06/01 05:42:44;;;;;;;5.43;3.58;;;;;;;15.14;53.93;101622.00;5023400;28;20349;-75
2021/06/01 05:45:10;;;;;;;6.28;2.88;;;;;;;15.34;51.37;101623.25;5024261;28;20116;-75
2021/06/01 05:47:36;;;;;;;5.75;3.00;;;;;;;15.64;50.43;101626.13;5037359;28;20179;-75
2021/06/01 05:50:03;;;;;;;4.97;2.33;;;;;;;15.86;50.31;101618.53;5022934;28;20055;-75
2021/06/01 05:52:28;;;;;;;6.88;2.30;;;;;;;16.19;49.23;101621.78;5023162;28;20021;-74
2021/06/01 05:54:54;;;;;;;8.75;2.90;;;;;;;16.41;49.43;101620.19;5040785;28;20072;-75
2021/06/01 05:57:19;;;;;;;6.57;2.40;;;;;;;16.52;46.96;101608.50;5024425;28;20025;-73
2021/06/01 05:59:46;;;;;;;4.20;2.80;;;;;;;16.61;46.83;101617.06;5024998;28;20041;-73
2021/06/01 06:02:11;;;;;;;3.50;2.60;;;;;;;16.88;46.59;101606.06;5039115;28;20557;-75
2021/06/01 06:04:36;;;;;;;4.47;2.65;;;;;;;17.16;45.68;101610.72;5015768;28;20052;-75
2021/06/01 06:07:02;;;;;;;5.28;2.75;;;;;;;17.33;46.47;101616.59;5039166;28;20021;-75
2021/06/01 06:09:27;;;;;;;4.05;2.50;;;;;;;17.44;45.74;101617.94;5024853;28;20083;-75
2021/06/01 06:11:53;;;;;;;7.10;3.05;;;;;;;17.81;45.19;101614.38;5023924;28;20037;-74
2021/06/01 06:14:18;;;;;;;6.82;2.22;;;;;;;18.11;45.81;101614.34;5039885;28;20669;-75
2021/06/01 06:16:51;;;;;;;5.30;2.67;;;;;;;18.31;44.18;101606.66;5023432;28;20405;-76
2021/06/01 06:19:16;;;;;;;3.67;2.42;;;;;;;17.98;43.77;101604.50;5021913;28;20647;-75
2021/06/01 06:21:42;;;;;;;3.67;2.53;;;;;;;18.20;43.59;101612.41;5025562;28;20092;-75
2021/06/01 06:24:08;;;;;;;5.15;2.47;;;;;;;18.16;43.45;101601.47;5039868;28;20524;-75
2021/06/01 06:26:33;;;;;;;9.52;2.72;;;;;;;18.44;43.46;101614.66;5024246;28;20418;-71
2021/06/01 06:28:59;;;;;;;3.40;2.40;;;;;;;18.31;42.71;101621.59;5022252;28;20117;-73
2021/06/01 06:31:24;;;;;;;5.00;2.63;;;;;;;18.39;41.50;101616.22;5036371;28;20065;-73
2021/06/01 06:33:50;;;;;;;4.07;2.20;;;;;;;18.47;41.87;101616.91;5023237;28;20033;-73
2021/06/01 06:36:15;;;;;;;7.13;2.53;;;;;;;18.69;41.59;101614.25;5020698;28;20040;-73
2021/06/01 06:38:43;;;;;;;3.97;2.38;;;;;;;19.17;40.60;101610.97;5026823;28;20381;-72
2021/06/01 06:41:15;;;;;;;3.92;2.17;;;;;;;19.41;40.99;101605.25;5026493;28;20159;-73
2021/06/01 06:43:45;;;;;;;5.32;2.22;;;;;;;19.70;40.52;101611.22;5025742;28;20045;-74
2021/06/01 06:46:15;;;;;;;10.50;3.03;;;;;;;19.95;40.83;101611.56;5027203;28;20091;-73
2021/06/01 06:48:41;;;;;;;4.15;2.40;;;;;;;19.87;40.32;101610.91;5025642;28;20033;-73
2021/06/01 06:51:12;;;;;;;3.83;2.10;;;;;;;20.01;39.18;101609.94;5042698;28;20025;-73
2021/06/01 06:54:01;;;;;;;5.50;2.30;;;;;;;20.51;37.37;101596.44;5028325;28;20099;-73
2021/06/01 06:56:28;;;;;;;4.53;2.85;;;;;;;21.14;37.95;101602.06;5041653;28;20025;-73
2021/06/01 06:58:54;;;;;;;4.93;2.10;;;;;;;21.53;37.30;101605.63;5040500;28;20041;-73
2021/06/01 07:01:20;;;;;;;3.58;1.73;;;;;;;21.99;36.48;101600.31;5030105;28;20038;-73
2021/06/01 07:03:46;;;;;;;6.22;1.90;;;;;;;21.83;36.33;101602.44;5028068;28;20048;-74
2021/06/01 07:06:11;;;;;;;3.70;2.30;;;;;;;21.52;36.29;101601.34;5026912;28;20033;-73
2021/06/01 07:08:38;;;;;;;2.13;1.73;;;;;;;21.30;36.19;101597.34;5043246;28;20060;-74
2021/06/01 07:11:04;;;;;;;8.80;2.40;;;;;;;21.50;36.89;101598.13;5028687;28;20454;-73
2021/06/01 07:13:39;;;;;;;3.92;2.33;;;;;;;21.24;36.85;101598.19;5043053;28;20136;-74
2021/06/01 07:16:05;;;;;;;3.67;2.20;;;;;;;21.55;36.48;101598.31;5026954;28;20022;-73
2021/06/01 07:18:31;;;;;;;3.53;2.10;;;;;;;21.83;35.53;101591.06;5026782;28;20717;-74
2021/06/01 07:21:00;;;;;;;2.97;2.03;;;;;;;22.16;35.70;101591.66;5043764;28;20036;-74
2021/06/01 07:23:25;;;;;;;4.18;2.03;;;;;;;22.68;34.24;101594.13;5024150;28;20033;-73
2021/06/01 07:25:50;;;;;;;5.97;2.53;;;;;;;22.84;34.27;101594.59;5043388;28;20075;-75
2021/06/01 07:28:16;;;;;;;5.90;2.17;;;;;;;22.97;34.72;101588.38;5018096;28;20148;-74
2021/06/01 07:30:42;;;;;;;7.45;3.00;;;;;;;23.02;34.71;101585.84;5042659;28;20040;-74
2021/06/01 07:33:07;;;;;;;8.48;2.13;;;;;;;23.06;33.75;101587.09;5024820;28;20112;-74
2021/06/01 07:35:32;;;;;;;6.07;2.15;;;;;;;23.19;34.30;101579.00;5023239;28;20033;-74
2021/06/01 07:37:58;;;;;;;6.20;2.10;;;;;;;23.65;33.94;101571.50;5043346;28;20026;-76
2021/06/01 07:40:24;;;;;;;2.95;2.15;;;;;;;24.23;33.13;101580.66;5027541;28;20039;-74
2021/06/01 07:42:50;;;;;;;6.75;2.17;;;;;;;24.48;33.10;101575.16;5026937;28;20040;-74
2021/06/01 07:45:15;;;;;;;7.25;3.60;;;;;;;24.56;32.71;101574.03;5030946;28;20025;-74
2021/06/01 07:47:42;;;;;;;4.75;2.08;;;;;;;24.68;32.99;101577.50;5026203;28;20048;-74
2021/06/01 07:50:08;;;;;;;5.07;2.40;;;;;;;25.03;32.22;101576.63;5025905;28;22014;-74
2021/06/01 07:52:34;;;;;;;2.75;1.88;;;;;;;25.20;32.20;101574.03;5026706;28;20034;-74
2021/06/01 07:54:59;;;;;;;3.05;2.28;;;;;;;25.38;32.35;101573.09;5031309;28;20033;-74
2021/06/01 07:57:25;;;;;;;5.45;2.15;;;;;;;25.27;30.77;101573.97;5041172;28;20108;-75
2021/06/01 07:59:50;;;;;;;3.10;2.30;;;;;;;24.92;31.99;101572.97;5031286;28;20640;-74
2021/06/01 08:02:16;;;;;;;4.68;2.47;;;;;;;25.24;32.35;101559.28;5026487;28;20037;-74
2021/06/01 08:04:41;;;;;;;2.50;1.92;;;;;;;25.61;31.58;101550.97;5027464;28;20440;-75
2021/06/01 08:07:08;;;;;;;5.40;1.90;;;;;;;25.38;30.48;101552.69;5025438;28;20053;-74
2021/06/01 08:09:35;;;;;;;4.45;2.53;;;;;;;25.08;29.78;101552.84;5024496;28;20719;-75
2021/06/01 08:12:01;;;;;;;4.35;1.70;;;;;;;25.32;29.93;101550.97;5026826;28;20029;-74
2021/06/01 08:14:26;;;;;;;4.07;2.10;;;;;;;25.91;31.55;101545.38;5024140;28;20033;-74
2021/06/01 08:16:51;;;;;;;3.60;1.95;;;;;;;26.15;30.32;101545.25;5043044;28;20453;-75
2021/06/01 08:19:24;;;;;;;3.08;1.92;;;;;;;26.37;29.40;101548.78;5025049;28;20076;-75
2021/06/01 08:24:16;;;;;;;3.38;1.80;;;;;;;26.58;29.06;101551.72;5025665;28;20465;-75
2021/06/01 08:26:42;;;;;;;2.90;1.90;;;;;;;26.51;28.78;101551.88;5025338;28;20612;-74
2021/06/01 08:29:08;;;;;;;3.67;2.03;;;;;;;26.18;28.05;101550.88;5025080;28;20071;-75
2021/06/01 08:31:34;;;;;;;2.55;1.88;;;;;;;26.34;29.12;101551.13;5025662;28;20029;-75
2021/06/01 08:33:59;;;;;;;3.28;2.17;;;;;;;26.56;28.17;101548.47;5028542;28;20052;-74
2021/06/01 08:36:27;;;;;;;4.25;1.92;;;;;;;26.54;27.27;101547.91;5019592;28;20029;-75
2021/06/01 08:38:52;;;;;;;5.43;2.20;;;;;;;26.37;26.79;101545.28;5040362;28;20033;-74
2021/06/01 08:41:18;;;;;;;5.43;2.10;;;;;;;25.91;27.69;101541.91;5025302;28;20042;-74
2021/06/01 08:43:46;;;;;;;4.40;2.47;;;;;;;25.83;27.53;101541.25;5024392;28;20064;-75
2021/06/01 08:46:12;;;;;;;6.00;2.60;;;;;;;25.83;28.97;101541.25;5029507;28;20037;-75
2021/06/01 08:48:38;;;;;;;2.40;1.85;;;;;;;26.38;30.15;101534.41;5039851;28;20368;-75
2021/06/01 08:51:06;;;;;;;7.70;2.72;;;;;;;26.99;29.81;101530.97;5021933;28;20029;-75
2021/06/01 08:53:33;;;;;;;13.50;2.00;;;;;;;27.10;27.73;101529.22;5052397;28;20521;-74
2021/06/01 08:55:58;;;;;;;3.78;2.05;;;;;;;27.03;26.95;101529.44;5026089;28;20128;-74
2021/06/01 08:58:24;;;;;;;3.35;1.75;;;;;;;27.14;27.75;101525.00;5041143;28;20148;-75
2021/06/01 09:00:49;;;;;;;6.10;2.22;;;;;;;26.96;26.55;101524.28;5023422;28;20037;-75
2021/06/01 09:03:19;;;;;;;6.10;2.20;;;;;;;26.99;27.94;101523.81;5026034;28;20041;-74
2021/06/01 09:06:01;;;;;;;2.72;1.80;;;;;;;27.24;27.38;101508.34;5024667;28;20037;-75
2021/06/01 09:22:33;;;;;;;5.40;1.90;;;;;;;26.77;25.37;101507.06;5024452;28;20483;-74
2021/06/01 09:25:10;;;;;;;4.10;2.03;;;;;;;26.87;25.12;101507.16;5025407;28;20045;-75
2021/06/01 09:27:41;;;;;;;3.85;1.50;;;;;;;26.87;24.64;101507.16;5040832;28;20037;-74
2021/06/01 09:30:07;;;;;;;3.53;1.67;;;;;;;26.75;25.11;101509.94;5018982;28;20037;-75
2021/06/01 09:32:42;;;;;;;2.95;1.65;;;;;;;26.06;24.15;101515.63;5038987;28;20033;-75
2021/06/01 09:35:07;;;;;;;3.38;1.67;;;;;;;26.20;23.90;101506.28;5022936;28;20033;-75
2021/06/01 09:37:34;;;;;;;2.58;1.25;;;;;;;26.39;25.28;101498.00;5038195;28;20120;-75
2021/06/01 09:40:19;;;;;;;4.03;1.83;;;;;;;26.42;25.15;101497.53;5029786;28;20082;-75
2021/06/01 09:42:48;;;;;;;4.20;2.30;;;;;;;26.68;24.96;101497.91;5037809;28;20044;-75
2021/06/01 09:45:17;;;;;;;3.05;1.60;;;;;;;26.72;25.24;101493.69;5040221;28;20051;-74
2021/06/01 09:47:51;;;;;;;6.53;1.67;;;;;;;26.53;23.62;101495.81;5023470;28;20033;-75
2021/06/01 09:52:51;;;;;;;8.30;1.70;;;;;;;27.00;26.00;101479.38;5024536;28;20109;-74
2021/06/01 09:57:55;;;;;;;2.47;1.60;;;;;;;26.49;22.87;101489.38;5022876;28;20041;-73
2021/06/01 10:00:27;;;;;;;2.72;1.55;;;;;;;26.76;25.38;101482.28;5041146;28;20486;-75
2021/06/01 10:03:16;;;;;;;2.40;2.13;;;;;;;26.61;24.85;101480.25;5024362;28;20033;-75
2021/06/01 10:05:43;;;;;;;8.23;1.92;;;;;;;26.88;23.96;101474.19;5035850;28;20044;-75
2021/06/01 10:08:21;;;;;;;2.88;1.95;;;;;;;27.16;24.83;101475.81;5039146;28;20025;-76
2021/06/01 10:10:58;;;;;;;5.75;1.70;;;;;;;26.82;25.16;101469.84;5028267;28;20037;-75
2021/06/01 10:13:27;;;;;;;4.95;1.75;;;;;;;26.97;25.14;101461.25;5028709;28;20401;-74
2021/06/01 10:15:55;;;;;;;2.28;1.98;;;;;;;26.92;23.83;101462.00;5024873;28;20021;-74
2021/06/01 10:18:21;;;;;;;10.68;2.30;;;;;;;26.56;23.97;101458.91;5044080;28;20111;-75
2021/06/01 10:20:49;;;;;;;2.50;1.40;;;;;;;26.99;24.34;101444.00;5030492;28;20033;-75
2021/06/01 10:23:20;;;;;;;2.63;1.85;;;;;;;26.98;22.71;101450.34;5028530;28;20508;-76
2021/06/01 10:25:46;;;;;;;2.30;2.05;;;;;;;26.37;23.91;101445.09;5024420;28;20127;-75
2021/06/01 10:28:11;;;;;;;4.38;1.83;;;;;;;26.51;24.36;101442.09;5046427;28;20084;-75
2021/06/01 10:30:39;;;;;;;3.47;1.42;;;;;;;27.09;25.31;101445.16;5024687;28;20045;-75
2021/06/01 10:33:08;;;;;;;5.57;2.00;;;;;;;27.37;25.39;101436.91;5028480;28;20033;-75
2021/06/01 10:35:38;;;;;;;3.28;1.63;;;;;;;27.50;24.69;101438.34;5045247;28;20548;-76
2021/06/01 10:44:15;;;;;;;3.33;1.40;;;;;;;27.50;24.96;101440.19;5029631;28;20036;-76
2021/06/01 10:52:27;;;;;;;4.75;1.67;;;;;;;27.48;22.77;101416.50;5046965;28;20486;-73
2021/06/01 10:54:54;;;;;;;2.15;1.55;;;;;;;27.09;23.88;101426.53;5033176;28;20025;-75
2021/06/01 10:57:20;;;;;;;3.50;1.90;;;;;;;27.47;24.40;101422.09;5044453;28;20550;-76
2021/06/01 11:02:14;;;;;;;4.32;1.90;;;;;;;27.78;24.06;101401.78;5041654;28;20057;-74
2021/06/01 11:05:07;;;;;;;4.18;1.70;;;;;;;27.42;23.90;101408.72;5029721;28;20030;-76
2021/06/01 11:07:51;;;;;;;;;;;;;;;27.47;24.12;101404.25;5040955;28;20037;-75
2021/06/01 11:10:36;;;;;;;7.78;1.70;;;;;;;26.92;24.30;101406.13;5028464;28;19917;-76
2021/06/01 11:13:02;;;;;;;4.68;1.48;;;;;;;27.05;24.08;101402.28;5024320;28;20048;-75
2021/06/01 11:15:29;;;;;;;2.20;1.60;;;;;;;27.36;24.62;101398.03;5027527;28;20034;-75
2021/06/01 11:18:13;;;;;;;1.73;1.25;;;;;;;27.19;23.33;101389.34;5055033;28;20086;-75
2021/06/01 11:21:03;;;;;;;3.33;1.70;;;;;;;27.37;24.40;101394.31;5027591;28;20497;-75
2021/06/01 11:23:40;;;;;;;3.20;1.73;;;;;;;27.72;23.71;101386.84;5027038;28;20033;-76
2021/06/01 11:34:54;;;;;;;3.15;1.42;;;;;;;27.56;22.90;101376.09;5029046;28;20046;-75
2021/06/01 11:37:32;;;;;;;1.75;1.50;;;;;;;27.74;23.38;101364.19;5042627;28;20104;-75
2021/06/01 11:40:54;;;;;;;1.70;1.35;;;;;;;28.06;24.97;101368.66;5041921;28;20068;-76
2021/06/01 11:42:50;;;;;;;5.07;1.85;;;;;;;28.31;23.57;101367.16;5020450;28;20049;-75
2021/06/01 11:45:18;;;;;;;2.85;1.70;;;;;;;27.88;24.34;101366.44;5026561;28;20029;-75
2021/06/01 11:48:04;;;;;;;5.97;1.52;;;;;;;27.82;22.82;101354.94;5049858;28;20175;-75
2021/06/01 11:53:15;;;;;;;4.75;1.58;;;;;;;27.06;24.10;101358.63;5028349;28;20086;-75
2021/06/01 11:55:44;;;;;;;2.65;1.88;;;;;;;26.98;23.86;101357.22;5025552;28;20091;-75
2021/06/01 12:03:58;;;;;;;7.85;4.13;;;;;;;27.92;22.11;101340.91;5026159;28;20044;-76
2021/06/01 12:12:06;;;;;;;1.75;1.65;;;;;;;28.39;24.24;101332.00;5043494;28;20433;-76
2021/06/01 12:17:49;;;;;;;3.35;1.92;;;;;;;28.00;21.78;101334.25;5019267;28;20034;-75
2021/06/01 12:20:15;;;;;;;1.73;1.60;;;;;;;28.18;21.33;101325.00;5027533;28;20510;-76
2021/06/01 12:22:40;;;;;;;3.08;1.77;;;;;;;28.03;22.26;101326.56;5043127;28;20107;-75
2021/06/01 12:25:09;;;;;;;3.55;1.75;;;;;;;28.09;24.04;101322.03;5024708;28;20146;-74
2021/06/01 12:27:53;;;;;;;3.72;1.85;;;;;;;28.17;22.90;101321.53;5027671;28;20025;-75
2021/06/01 12:33:09;;;;;;;5.38;1.80;;;;;;;28.10;22.97;101311.09;5025755;28;20036;-75
2021/06/01 13:23:56;;;;;;;2.10;1.40;;;;;;;28.10;23.28;101255.13;5026523;28;20056;-76
2021/06/01 13:56:14;;;;;;;2.13;1.77;;;;;;;28.84;22.43;101230.97;5030521;28;20037;-76
2021/06/01 14:09:58;;;;;;;5.53;1.95;;;;;;;28.74;20.87;101202.44;5026436;28;20031;-76
2021/06/01 14:31:51;;;;;;;2.50;1.63;;;;;;;28.93;21.20;101187.47;5044837;28;20053;-75